sensor_id;sensor_type;location;lat;lon;timestamp;P1;durP1;ratioP1;P2;durP2;ratioP2
23451;SDS011;11898;51.130;6.780;2022-08-01T00:00:28;4.30;;;2.65;;
23451;SDS011;11898;51.130;6.780;2022-08-01T00:02:56;2.75;;;2.30;;
23451;SDS011;11898;51.130;6.780;2022-08-01T00:05:25;4.12;;;2.55;;
23451;SDS011;11898;51.130;6.780;2022-08-01T00:07:53;2.95;;;2.55;;
23451;SDS011;11898;51.130;6.780;2022-08-01T00:10:21;2.58;;;2.37;;
23451;SDS011;11898;51.130;6.780;2022-08-01T00:12:50;3.17;;;2.25;;
23451;SDS011;11898;51.130;6.780;2022-08-01T00:15:18;3.72;;;2.55;;
23451;SDS011;11898;51.130;6.780;2022-08-01T00:17:46;3.87;;;2.55;;
23451;SDS011;11898;51.130;6.780;2022-08-01T00:20:14;4.20;;;2.72;;
23451;SDS011;11898;51.130;6.780;2022-08-01T00:22:43;3.98;;;2.60;;
23451;SDS011;11898;51.130;6.780;2022-08-01T00:25:11;5.65;;;2.77;;
23451;SDS011;11898;51.130;6.780;2022-08-01T00:27:39;4.92;;;2.70;;
23451;SDS011;11898;51.130;6.780;2022-08-01T00:30:08;4.08;;;2.27;;
23451;SDS011;11898;51.130;6.780;2022-08-01T00:32:38;2.77;;;2.50;;
23451;SDS011;11898;51.130;6.780;2022-08-01T00:35:06;3.65;;;2.35;;
23451;SDS011;11898;51.130;6.780;2022-08-01T00:37:34;2.90;;;2.50;;
23451;SDS011;11898;51.130;6.780;2022-08-01T00:40:03;2.70;;;2.22;;
23451;SDS011;11898;51.130;6.780;2022-08-01T00:42:31;2.62;;;2.33;;
23451;SDS011;11898;51.130;6.780;2022-08-01T00:44:59;4.40;;;2.62;;
23451;SDS011;11898;51.130;6.780;2022-08-01T00:47:28;3.30;;;2.80;;
23451;SDS011;11898;51.130;6.780;2022-08-01T00:49:56;2.77;;;2.52;;
23451;SDS011;11898;51.130;6.780;2022-08-01T00:52:24;2.37;;;2.20;;
23451;SDS011;11898;51.130;6.780;2022-08-01T00:54:52;2.60;;;2.37;;
23451;SDS011;11898;51.130;6.780;2022-08-01T00:57:21;3.42;;;2.60;;
23451;SDS011;11898;51.130;6.780;2022-08-01T00:59:50;2.83;;;2.50;;
23451;SDS011;11898;51.130;6.780;2022-08-01T01:02:20;2.60;;;2.40;;
23451;SDS011;11898;51.130;6.780;2022-08-01T01:04:49;2.58;;;2.10;;
23451;SDS011;11898;51.130;6.780;2022-08-01T01:17:46;4.30;;;2.40;;
23451;SDS011;11898;51.130;6.780;2022-08-01T01:20:20;2.90;;;2.52;;
23451;SDS011;11898;51.130;6.780;2022-08-01T01:25:40;3.92;;;2.83;;
23451;SDS011;11898;51.130;6.780;2022-08-01T01:31:31;3.00;;;2.58;;
23451;SDS011;11898;51.130;6.780;2022-08-01T01:34:02;3.40;;;2.80;;
23451;SDS011;11898;51.130;6.780;2022-08-01T01:36:32;3.40;;;2.70;;
23451;SDS011;11898;51.130;6.780;2022-08-01T01:39:03;3.90;;;3.10;;
23451;SDS011;11898;51.130;6.780;2022-08-01T01:41:34;3.62;;;2.85;;
23451;SDS011;11898;51.130;6.780;2022-08-01T01:44:05;3.58;;;2.87;;
23451;SDS011;11898;51.130;6.780;2022-08-01T01:46:35;3.12;;;2.83;;
23451;SDS011;11898;51.130;6.780;2022-08-01T01:49:05;8.35;;;3.47;;
23451;SDS011;11898;51.130;6.780;2022-08-01T01:51:37;4.05;;;2.77;;
23451;SDS011;11898;51.130;6.780;2022-08-01T01:56:38;2.80;;;2.60;;
23451;SDS011;11898;51.130;6.780;2022-08-01T01:59:10;3.00;;;2.77;;
23451;SDS011;11898;51.130;6.780;2022-08-01T02:01:39;2.85;;;2.50;;
23451;SDS011;11898;51.130;6.780;2022-08-01T02:04:10;4.22;;;2.72;;
23451;SDS011;11898;51.130;6.780;2022-08-01T02:06:40;4.80;;;3.10;;
23451;SDS011;11898;51.130;6.780;2022-08-01T02:09:10;2.37;;;2.17;;
23451;SDS011;11898;51.130;6.780;2022-08-01T02:11:41;4.87;;;2.80;;
23451;SDS011;11898;51.130;6.780;2022-08-01T02:14:12;3.95;;;2.50;;
23451;SDS011;11898;51.130;6.780;2022-08-01T02:16:44;3.12;;;2.50;;
23451;SDS011;11898;51.130;6.780;2022-08-01T02:19:17;3.67;;;2.27;;
23451;SDS011;11898;51.130;6.780;2022-08-01T02:22:08;3.50;;;2.50;;
23451;SDS011;11898;51.130;6.780;2022-08-01T02:24:40;3.65;;;2.60;;
23451;SDS011;11898;51.130;6.780;2022-08-01T02:27:12;4.08;;;2.35;;
23451;SDS011;11898;51.130;6.780;2022-08-01T02:29:53;4.20;;;2.60;;
23451;SDS011;11898;51.130;6.780;2022-08-01T02:32:27;4.10;;;2.40;;
23451;SDS011;11898;51.130;6.780;2022-08-01T02:35:01;2.65;;;2.42;;
23451;SDS011;11898;51.130;6.780;2022-08-01T02:37:31;3.25;;;2.58;;
23451;SDS011;11898;51.130;6.780;2022-08-01T02:40:02;4.73;;;3.03;;
23451;SDS011;11898;51.130;6.780;2022-08-01T02:42:35;3.12;;;2.60;;
23451;SDS011;11898;51.130;6.780;2022-08-01T02:45:06;3.55;;;2.90;;
23451;SDS011;11898;51.130;6.780;2022-08-01T02:47:37;3.75;;;2.55;;
23451;SDS011;11898;51.130;6.780;2022-08-01T02:50:10;8.15;;;2.85;;
23451;SDS011;11898;51.130;6.780;2022-08-01T02:52:40;2.98;;;2.67;;
23451;SDS011;11898;51.130;6.780;2022-08-01T02:55:11;5.62;;;3.27;;
23451;SDS011;11898;51.130;6.780;2022-08-01T02:57:41;5.05;;;2.85;;
23451;SDS011;11898;51.130;6.780;2022-08-01T03:00:14;4.20;;;2.45;;
23451;SDS011;11898;51.130;6.780;2022-08-01T03:02:44;3.92;;;2.70;;
23451;SDS011;11898;51.130;6.780;2022-08-01T03:05:15;3.20;;;2.90;;
23451;SDS011;11898;51.130;6.780;2022-08-01T03:07:45;3.20;;;2.90;;
23451;SDS011;11898;51.130;6.780;2022-08-01T03:10:15;3.42;;;3.00;;
23451;SDS011;11898;51.130;6.780;2022-08-01T03:12:45;3.72;;;3.15;;
23451;SDS011;11898;51.130;6.780;2022-08-01T03:15:16;6.20;;;3.20;;
23451;SDS011;11898;51.130;6.780;2022-08-01T03:17:47;8.25;;;3.08;;
23451;SDS011;11898;51.130;6.780;2022-08-01T03:20:18;5.37;;;3.75;;
23451;SDS011;11898;51.130;6.780;2022-08-01T03:22:50;6.80;;;3.50;;
23451;SDS011;11898;51.130;6.780;2022-08-01T03:25:20;4.33;;;3.33;;
23451;SDS011;11898;51.130;6.780;2022-08-01T03:27:54;3.52;;;3.22;;
23451;SDS011;11898;51.130;6.780;2022-08-01T03:30:23;5.03;;;3.70;;
23451;SDS011;11898;51.130;6.780;2022-08-01T03:32:53;6.60;;;4.00;;
23451;SDS011;11898;51.130;6.780;2022-08-01T03:35:23;5.12;;;3.67;;
23451;SDS011;11898;51.130;6.780;2022-08-01T03:37:56;5.85;;;3.75;;
23451;SDS011;11898;51.130;6.780;2022-08-01T03:43:45;4.97;;;3.83;;
23451;SDS011;11898;51.130;6.780;2022-08-01T03:46:06;5.30;;;3.92;;
23451;SDS011;11898;51.130;6.780;2022-08-01T03:48:55;9.28;;;3.55;;
23451;SDS011;11898;51.130;6.780;2022-08-01T03:51:25;5.28;;;3.95;;
23451;SDS011;11898;51.130;6.780;2022-08-01T03:53:55;6.83;;;4.55;;
23451;SDS011;11898;51.130;6.780;2022-08-01T03:56:27;4.75;;;4.35;;
23451;SDS011;11898;51.130;6.780;2022-08-01T03:58:59;5.83;;;4.23;;
23451;SDS011;11898;51.130;6.780;2022-08-01T04:01:30;5.75;;;4.28;;
23451;SDS011;11898;51.130;6.780;2022-08-01T04:04:01;5.58;;;4.55;;
23451;SDS011;11898;51.130;6.780;2022-08-01T04:06:31;6.33;;;5.42;;
23451;SDS011;11898;51.130;6.780;2022-08-01T04:09:00;9.53;;;5.97;;
23451;SDS011;11898;51.130;6.780;2022-08-01T04:11:29;9.05;;;5.60;;
23451;SDS011;11898;51.130;6.780;2022-08-01T04:13:58;10.20;;;5.65;;
23451;SDS011;11898;51.130;6.780;2022-08-01T04:16:26;8.73;;;5.58;;
23451;SDS011;11898;51.130;6.780;2022-08-01T04:18:55;9.93;;;6.90;;
23451;SDS011;11898;51.130;6.780;2022-08-01T04:21:25;8.70;;;5.97;;
23451;SDS011;11898;51.130;6.780;2022-08-01T04:23:59;8.90;;;6.60;;
23451;SDS011;11898;51.130;6.780;2022-08-01T04:26:33;7.37;;;6.03;;
23451;SDS011;11898;51.130;6.780;2022-08-01T04:29:22;9.50;;;6.67;;
23451;SDS011;11898;51.130;6.780;2022-08-01T04:31:53;8.75;;;7.30;;
23451;SDS011;11898;51.130;6.780;2022-08-01T04:34:25;9.13;;;6.70;;
23451;SDS011;11898;51.130;6.780;2022-08-01T04:36:55;12.68;;;7.58;;
23451;SDS011;11898;51.130;6.780;2022-08-01T04:39:26;11.73;;;7.40;;
23451;SDS011;11898;51.130;6.780;2022-08-01T04:41:58;11.63;;;7.58;;
23451;SDS011;11898;51.130;6.780;2022-08-01T04:44:31;10.55;;;7.53;;
23451;SDS011;11898;51.130;6.780;2022-08-01T04:47:00;11.75;;;7.83;;
23451;SDS011;11898;51.130;6.780;2022-08-01T04:49:33;10.18;;;7.95;;
23451;SDS011;11898;51.130;6.780;2022-08-01T04:52:04;12.37;;;7.12;;
23451;SDS011;11898;51.130;6.780;2022-08-01T04:54:35;11.22;;;7.85;;
23451;SDS011;11898;51.130;6.780;2022-08-01T04:57:04;11.78;;;8.28;;
23451;SDS011;11898;51.130;6.780;2022-08-01T04:59:36;13.15;;;8.35;;
23451;SDS011;11898;51.130;6.780;2022-08-01T05:02:13;16.25;;;8.75;;
23451;SDS011;11898;51.130;6.780;2022-08-01T05:04:40;16.73;;;8.55;;
23451;SDS011;11898;51.130;6.780;2022-08-01T05:07:09;13.85;;;8.88;;
23451;SDS011;11898;51.130;6.780;2022-08-01T05:09:39;12.45;;;8.50;;
23451;SDS011;11898;51.130;6.780;2022-08-01T05:12:12;13.25;;;7.90;;
23451;SDS011;11898;51.130;6.780;2022-08-01T05:14:42;10.58;;;7.72;;
23451;SDS011;11898;51.130;6.780;2022-08-01T05:17:12;12.78;;;8.35;;
23451;SDS011;11898;51.130;6.780;2022-08-01T05:19:41;11.03;;;8.30;;
23451;SDS011;11898;51.130;6.780;2022-08-01T05:22:10;12.45;;;8.80;;
23451;SDS011;11898;51.130;6.780;2022-08-01T05:24:38;11.48;;;8.30;;
23451;SDS011;11898;51.130;6.780;2022-08-01T05:27:11;11.53;;;8.45;;
23451;SDS011;11898;51.130;6.780;2022-08-01T05:29:42;13.60;;;9.05;;
23451;SDS011;11898;51.130;6.780;2022-08-01T05:32:11;10.18;;;8.65;;
23451;SDS011;11898;51.130;6.780;2022-08-01T05:34:39;13.08;;;8.88;;
23451;SDS011;11898;51.130;6.780;2022-08-01T05:37:08;13.93;;;9.13;;
23451;SDS011;11898;51.130;6.780;2022-08-01T05:39:37;16.05;;;9.70;;
23451;SDS011;11898;51.130;6.780;2022-08-01T05:42:06;12.75;;;9.15;;
23451;SDS011;11898;51.130;6.780;2022-08-01T05:44:35;14.33;;;9.70;;
23451;SDS011;11898;51.130;6.780;2022-08-01T05:47:03;13.53;;;10.13;;
23451;SDS011;11898;51.130;6.780;2022-08-01T05:49:32;14.03;;;9.75;;
23451;SDS011;11898;51.130;6.780;2022-08-01T05:52:01;12.88;;;9.20;;
23451;SDS011;11898;51.130;6.780;2022-08-01T05:54:32;13.15;;;9.68;;
23451;SDS011;11898;51.130;6.780;2022-08-01T05:57:01;14.07;;;9.85;;
23451;SDS011;11898;51.130;6.780;2022-08-01T05:59:32;13.45;;;9.38;;
23451;SDS011;11898;51.130;6.780;2022-08-01T06:02:01;14.47;;;10.13;;
23451;SDS011;11898;51.130;6.780;2022-08-01T06:04:31;16.15;;;10.00;;
23451;SDS011;11898;51.130;6.780;2022-08-01T06:06:59;14.70;;;10.32;;
23451;SDS011;11898;51.130;6.780;2022-08-01T06:09:31;13.50;;;10.00;;
23451;SDS011;11898;51.130;6.780;2022-08-01T06:11:59;12.03;;;8.75;;
23451;SDS011;11898;51.130;6.780;2022-08-01T06:14:30;14.63;;;9.55;;
23451;SDS011;11898;51.130;6.780;2022-08-01T06:16:58;13.10;;;9.80;;
23451;SDS011;11898;51.130;6.780;2022-08-01T06:19:27;13.58;;;9.63;;
23451;SDS011;11898;51.130;6.780;2022-08-01T06:21:55;15.13;;;9.55;;
23451;SDS011;11898;51.130;6.780;2022-08-01T06:24:24;14.13;;;9.35;;
23451;SDS011;11898;51.130;6.780;2022-08-01T06:26:53;12.88;;;9.23;;
23451;SDS011;11898;51.130;6.780;2022-08-01T06:29:22;12.00;;;9.63;;
23451;SDS011;11898;51.130;6.780;2022-08-01T06:31:51;12.82;;;9.15;;
23451;SDS011;11898;51.130;6.780;2022-08-01T06:34:19;11.25;;;8.23;;
23451;SDS011;11898;51.130;6.780;2022-08-01T06:36:49;10.32;;;7.72;;
23451;SDS011;11898;51.130;6.780;2022-08-01T06:39:18;13.70;;;8.50;;
23451;SDS011;11898;51.130;6.780;2022-08-01T06:41:47;14.00;;;9.10;;
23451;SDS011;11898;51.130;6.780;2022-08-01T06:44:16;13.55;;;9.35;;
23451;SDS011;11898;51.130;6.780;2022-08-01T06:46:44;11.25;;;8.63;;
23451;SDS011;11898;51.130;6.780;2022-08-01T06:49:13;9.65;;;8.20;;
23451;SDS011;11898;51.130;6.780;2022-08-01T06:51:43;14.85;;;10.88;;
23451;SDS011;11898;51.130;6.780;2022-08-01T06:54:11;11.65;;;8.20;;
23451;SDS011;11898;51.130;6.780;2022-08-01T06:56:40;14.95;;;7.50;;
23451;SDS011;11898;51.130;6.780;2022-08-01T06:59:09;15.98;;;10.78;;
23451;SDS011;11898;51.130;6.780;2022-08-01T07:01:37;11.08;;;9.03;;
23451;SDS011;11898;51.130;6.780;2022-08-01T07:04:08;11.43;;;7.58;;
23451;SDS011;11898;51.130;6.780;2022-08-01T07:06:35;13.50;;;8.35;;
23451;SDS011;11898;51.130;6.780;2022-08-01T07:09:03;10.53;;;8.38;;
23451;SDS011;11898;51.130;6.780;2022-08-01T07:11:33;24.27;;;15.63;;
23451;SDS011;11898;51.130;6.780;2022-08-01T07:14:02;12.43;;;8.50;;
23451;SDS011;11898;51.130;6.780;2022-08-01T07:16:30;12.53;;;8.00;;
23451;SDS011;11898;51.130;6.780;2022-08-01T07:18:58;11.78;;;8.28;;
23451;SDS011;11898;51.130;6.780;2022-08-01T07:21:27;18.10;;;12.25;;
23451;SDS011;11898;51.130;6.780;2022-08-01T07:23:56;18.02;;;11.40;;
23451;SDS011;11898;51.130;6.780;2022-08-01T07:26:26;10.65;;;7.45;;
23451;SDS011;11898;51.130;6.780;2022-08-01T07:28:54;10.95;;;7.15;;
23451;SDS011;11898;51.130;6.780;2022-08-01T07:31:23;8.53;;;6.25;;
23451;SDS011;11898;51.130;6.780;2022-08-01T07:33:53;9.85;;;7.47;;
23451;SDS011;11898;51.130;6.780;2022-08-01T07:36:21;11.40;;;7.62;;
23451;SDS011;11898;51.130;6.780;2022-08-01T07:38:49;8.90;;;7.47;;
23451;SDS011;11898;51.130;6.780;2022-08-01T07:41:17;10.05;;;7.30;;
23451;SDS011;11898;51.130;6.780;2022-08-01T07:43:46;7.83;;;6.28;;
23451;SDS011;11898;51.130;6.780;2022-08-01T07:46:17;8.48;;;7.00;;
23451;SDS011;11898;51.130;6.780;2022-08-01T07:48:46;7.70;;;6.17;;
23451;SDS011;11898;51.130;6.780;2022-08-01T07:51:14;7.65;;;5.67;;
23451;SDS011;11898;51.130;6.780;2022-08-01T07:53:42;10.78;;;6.58;;
23451;SDS011;11898;51.130;6.780;2022-08-01T07:56:10;7.33;;;5.75;;
23451;SDS011;11898;51.130;6.780;2022-08-01T07:58:39;9.03;;;6.33;;
23451;SDS011;11898;51.130;6.780;2022-08-01T08:01:07;8.00;;;6.03;;
23451;SDS011;11898;51.130;6.780;2022-08-01T08:03:36;7.28;;;5.83;;
23451;SDS011;11898;51.130;6.780;2022-08-01T08:06:04;8.80;;;6.12;;
23451;SDS011;11898;51.130;6.780;2022-08-01T08:08:32;6.35;;;5.10;;
23451;SDS011;11898;51.130;6.780;2022-08-01T08:11:01;7.12;;;5.53;;
23451;SDS011;11898;51.130;6.780;2022-08-01T08:13:30;10.28;;;6.75;;
23451;SDS011;11898;51.130;6.780;2022-08-01T08:15:58;8.15;;;6.08;;
23451;SDS011;11898;51.130;6.780;2022-08-01T08:18:26;7.12;;;6.08;;
23451;SDS011;11898;51.130;6.780;2022-08-01T08:20:55;6.72;;;5.22;;
23451;SDS011;11898;51.130;6.780;2022-08-01T08:23:23;6.22;;;4.42;;
23451;SDS011;11898;51.130;6.780;2022-08-01T08:26:10;7.17;;;5.55;;
23451;SDS011;11898;51.130;6.780;2022-08-01T08:28:39;7.05;;;5.53;;
23451;SDS011;11898;51.130;6.780;2022-08-01T08:31:07;6.70;;;4.80;;
23451;SDS011;11898;51.130;6.780;2022-08-01T08:33:37;7.20;;;5.70;;
23451;SDS011;11898;51.130;6.780;2022-08-01T08:36:05;7.65;;;5.45;;
23451;SDS011;11898;51.130;6.780;2022-08-01T08:38:34;5.15;;;4.65;;
23451;SDS011;11898;51.130;6.780;2022-08-01T08:41:02;16.00;;;7.25;;
23451;SDS011;11898;51.130;6.780;2022-08-01T08:43:30;7.28;;;5.78;;
23451;SDS011;11898;51.130;6.780;2022-08-01T08:45:59;8.10;;;5.95;;
23451;SDS011;11898;51.130;6.780;2022-08-01T08:48:27;6.30;;;5.33;;
23451;SDS011;11898;51.130;6.780;2022-08-01T08:50:57;7.10;;;4.85;;
23451;SDS011;11898;51.130;6.780;2022-08-01T08:53:25;5.92;;;5.05;;
23451;SDS011;11898;51.130;6.780;2022-08-01T08:55:56;7.45;;;5.03;;
23451;SDS011;11898;51.130;6.780;2022-08-01T08:58:25;7.85;;;5.03;;
23451;SDS011;11898;51.130;6.780;2022-08-01T09:00:55;6.00;;;4.42;;
23451;SDS011;11898;51.130;6.780;2022-08-01T09:03:24;4.95;;;4.45;;
23451;SDS011;11898;51.130;6.780;2022-08-01T09:05:52;5.30;;;4.30;;
23451;SDS011;11898;51.130;6.780;2022-08-01T09:08:20;5.30;;;3.90;;
23451;SDS011;11898;51.130;6.780;2022-08-01T09:10:48;5.97;;;3.90;;
23451;SDS011;11898;51.130;6.780;2022-08-01T09:13:17;4.95;;;3.60;;
23451;SDS011;11898;51.130;6.780;2022-08-01T09:15:46;4.60;;;3.37;;
23451;SDS011;11898;51.130;6.780;2022-08-01T09:18:29;4.65;;;3.98;;
23451;SDS011;11898;51.130;6.780;2022-08-01T09:23:42;4.08;;;3.58;;
23451;SDS011;11898;51.130;6.780;2022-08-01T09:26:17;5.60;;;3.65;;
23451;SDS011;11898;51.130;6.780;2022-08-01T09:28:45;4.53;;;4.10;;
23451;SDS011;11898;51.130;6.780;2022-08-01T09:31:15;4.22;;;3.35;;
23451;SDS011;11898;51.130;6.780;2022-08-01T09:33:55;4.50;;;3.52;;
23451;SDS011;11898;51.130;6.780;2022-08-01T09:36:26;4.92;;;3.67;;
23451;SDS011;11898;51.130;6.780;2022-08-01T11:02:58;5.60;;;2.62;;
23451;SDS011;11898;51.130;6.780;2022-08-01T11:05:28;3.90;;;2.42;;
23451;SDS011;11898;51.130;6.780;2022-08-01T11:08:01;2.50;;;2.30;;
23451;SDS011;11898;51.130;6.780;2022-08-01T11:10:42;3.02;;;2.33;;
23451;SDS011;11898;51.130;6.780;2022-08-01T11:13:11;2.27;;;2.08;;
23451;SDS011;11898;51.130;6.780;2022-08-01T11:15:40;3.52;;;1.95;;
23451;SDS011;11898;51.130;6.780;2022-08-01T11:18:29;2.20;;;2.00;;
23451;SDS011;11898;51.130;6.780;2022-08-01T11:21:02;2.85;;;2.00;;
23451;SDS011;11898;51.130;6.780;2022-08-01T11:23:28;1.82;;;1.50;;
23451;SDS011;11898;51.130;6.780;2022-08-01T18:35:49;1.87;;;1.30;;
23451;SDS011;11898;51.130;6.780;2022-08-01T18:38:15;4.10;;;1.47;;
23451;SDS011;11898;51.130;6.780;2022-08-01T18:40:43;2.12;;;1.30;;
23451;SDS011;11898;51.130;6.780;2022-08-01T18:43:12;2.15;;;1.47;;
23451;SDS011;11898;51.130;6.780;2022-08-01T18:45:40;2.20;;;1.60;;
23451;SDS011;11898;51.130;6.780;2022-08-01T18:48:09;2.83;;;1.30;;
23451;SDS011;11898;51.130;6.780;2022-08-01T18:50:38;3.60;;;1.72;;
23451;SDS011;11898;51.130;6.780;2022-08-01T18:53:06;6.33;;;2.55;;
23451;SDS011;11898;51.130;6.780;2022-08-01T18:55:35;2.40;;;1.40;;
23451;SDS011;11898;51.130;6.780;2022-08-01T18:58:03;3.02;;;1.67;;
23451;SDS011;11898;51.130;6.780;2022-08-01T19:00:31;4.30;;;2.30;;
23451;SDS011;11898;51.130;6.780;2022-08-01T19:03:00;3.40;;;1.52;;
23451;SDS011;11898;51.130;6.780;2022-08-01T19:05:30;2.60;;;1.35;;
23451;SDS011;11898;51.130;6.780;2022-08-01T19:08:00;5.70;;;1.40;;
23451;SDS011;11898;51.130;6.780;2022-08-01T19:10:30;4.67;;;1.40;;
23451;SDS011;11898;51.130;6.780;2022-08-01T19:12:58;1.52;;;1.42;;
23451;SDS011;11898;51.130;6.780;2022-08-01T19:15:27;3.10;;;1.55;;
23451;SDS011;11898;51.130;6.780;2022-08-01T19:17:55;2.30;;;1.60;;
23451;SDS011;11898;51.130;6.780;2022-08-01T19:20:24;4.62;;;1.40;;
23451;SDS011;11898;51.130;6.780;2022-08-01T19:22:52;1.70;;;1.50;;
23451;SDS011;11898;51.130;6.780;2022-08-01T19:25:20;3.08;;;1.30;;
23451;SDS011;11898;51.130;6.780;2022-08-01T19:27:50;1.35;;;1.25;;
23451;SDS011;11898;51.130;6.780;2022-08-01T19:30:19;1.67;;;1.57;;
23451;SDS011;11898;51.130;6.780;2022-08-01T19:32:47;2.47;;;1.50;;
23451;SDS011;11898;51.130;6.780;2022-08-01T19:35:16;3.45;;;1.47;;
23451;SDS011;11898;51.130;6.780;2022-08-01T19:37:44;2.98;;;1.95;;
23451;SDS011;11898;51.130;6.780;2022-08-01T19:40:18;2.55;;;1.70;;
23451;SDS011;11898;51.130;6.780;2022-08-01T19:45:36;2.45;;;1.70;;
23451;SDS011;11898;51.130;6.780;2022-08-01T19:48:04;2.42;;;2.02;;
23451;SDS011;11898;51.130;6.780;2022-08-01T19:50:33;2.45;;;1.82;;
23451;SDS011;11898;51.130;6.780;2022-08-01T19:53:02;5.58;;;1.98;;
23451;SDS011;11898;51.130;6.780;2022-08-01T19:55:30;2.47;;;2.22;;
23451;SDS011;11898;51.130;6.780;2022-08-01T19:58:05;7.12;;;1.90;;
23451;SDS011;11898;51.130;6.780;2022-08-01T20:00:36;4.28;;;2.10;;
23451;SDS011;11898;51.130;6.780;2022-08-01T20:03:06;3.58;;;2.25;;
23451;SDS011;11898;51.130;6.780;2022-08-01T20:05:36;7.60;;;2.80;;
23451;SDS011;11898;51.130;6.780;2022-08-01T20:08:05;4.70;;;2.45;;
23451;SDS011;11898;51.130;6.780;2022-08-01T20:10:34;9.80;;;4.53;;
23451;SDS011;11898;51.130;6.780;2022-08-01T20:13:04;3.40;;;3.10;;
23451;SDS011;11898;51.130;6.780;2022-08-01T20:15:37;2.98;;;2.72;;
23451;SDS011;11898;51.130;6.780;2022-08-01T20:18:05;3.20;;;2.37;;
23451;SDS011;11898;51.130;6.780;2022-08-01T20:20:34;2.60;;;2.30;;
23451;SDS011;11898;51.130;6.780;2022-08-01T20:23:05;4.53;;;2.42;;
23451;SDS011;11898;51.130;6.780;2022-08-01T20:25:38;3.72;;;2.80;;
23451;SDS011;11898;51.130;6.780;2022-08-01T20:28:09;4.42;;;2.47;;
23451;SDS011;11898;51.130;6.780;2022-08-01T20:30:39;4.25;;;2.27;;
23451;SDS011;11898;51.130;6.780;2022-08-01T20:33:09;4.45;;;2.30;;
23451;SDS011;11898;51.130;6.780;2022-08-01T20:35:38;5.33;;;2.50;;
23451;SDS011;11898;51.130;6.780;2022-08-01T20:38:08;5.83;;;2.72;;
23451;SDS011;11898;51.130;6.780;2022-08-01T20:40:41;7.65;;;2.55;;
23451;SDS011;11898;51.130;6.780;2022-08-01T20:43:11;3.47;;;2.33;;
23451;SDS011;11898;51.130;6.780;2022-08-01T20:45:40;5.47;;;2.60;;
23451;SDS011;11898;51.130;6.780;2022-08-01T20:48:10;3.12;;;2.30;;
23451;SDS011;11898;51.130;6.780;2022-08-01T20:50:39;4.58;;;2.30;;
23451;SDS011;11898;51.130;6.780;2022-08-01T20:53:29;4.00;;;2.50;;
23451;SDS011;11898;51.130;6.780;2022-08-01T20:56:02;4.72;;;2.10;;
23451;SDS011;11898;51.130;6.780;2022-08-01T20:59:05;4.60;;;2.42;;
23451;SDS011;11898;51.130;6.780;2022-08-01T21:01:46;6.72;;;2.67;;
23451;SDS011;11898;51.130;6.780;2022-08-01T21:07:24;4.12;;;2.65;;
23451;SDS011;11898;51.130;6.780;2022-08-01T21:12:43;7.37;;;2.58;;
23451;SDS011;11898;51.130;6.780;2022-08-01T21:15:40;4.55;;;2.52;;
23451;SDS011;11898;51.130;6.780;2022-08-01T21:18:43;7.20;;;2.67;;
23451;SDS011;11898;51.130;6.780;2022-08-01T21:21:13;5.35;;;2.60;;
23451;SDS011;11898;51.130;6.780;2022-08-01T21:23:42;3.77;;;2.15;;
23451;SDS011;11898;51.130;6.780;2022-08-01T21:26:15;4.42;;;2.87;;
23451;SDS011;11898;51.130;6.780;2022-08-01T21:28:47;26.07;;;13.65;;
23451;SDS011;11898;51.130;6.780;2022-08-01T21:31:19;9.47;;;4.13;;
23451;SDS011;11898;51.130;6.780;2022-08-01T21:33:49;7.17;;;3.00;;
23451;SDS011;11898;51.130;6.780;2022-08-01T21:36:20;4.03;;;2.42;;
23451;SDS011;11898;51.130;6.780;2022-08-01T21:38:50;4.15;;;2.10;;
23451;SDS011;11898;51.130;6.780;2022-08-01T21:41:23;4.95;;;2.52;;
23451;SDS011;11898;51.130;6.780;2022-08-01T21:43:54;8.53;;;2.52;;
23451;SDS011;11898;51.130;6.780;2022-08-01T21:46:26;3.50;;;2.58;;
23451;SDS011;11898;51.130;6.780;2022-08-01T21:48:56;2.52;;;2.30;;
23451;SDS011;11898;51.130;6.780;2022-08-01T21:56:56;4.10;;;2.70;;
23451;SDS011;11898;51.130;6.780;2022-08-01T22:02:24;4.83;;;2.80;;
23451;SDS011;11898;51.130;6.780;2022-08-01T22:07:29;3.67;;;2.58;;
23451;SDS011;11898;51.130;6.780;2022-08-01T22:10:04;4.50;;;2.22;;
23451;SDS011;11898;51.130;6.780;2022-08-01T22:12:33;3.70;;;2.30;;
23451;SDS011;11898;51.130;6.780;2022-08-01T22:15:03;5.33;;;2.42;;
23451;SDS011;11898;51.130;6.780;2022-08-01T22:17:33;2.42;;;2.12;;
23451;SDS011;11898;51.130;6.780;2022-08-01T22:20:01;4.37;;;2.40;;
23451;SDS011;11898;51.130;6.780;2022-08-01T22:22:30;3.58;;;2.40;;
23451;SDS011;11898;51.130;6.780;2022-08-01T22:25:00;4.37;;;2.55;;
23451;SDS011;11898;51.130;6.780;2022-08-01T22:27:30;5.92;;;2.70;;
23451;SDS011;11898;51.130;6.780;2022-08-01T22:30:02;4.45;;;2.77;;
23451;SDS011;11898;51.130;6.780;2022-08-01T22:32:34;5.08;;;2.67;;
23451;SDS011;11898;51.130;6.780;2022-08-01T22:35:05;3.17;;;2.87;;
23451;SDS011;11898;51.130;6.780;2022-08-01T22:37:36;3.70;;;2.85;;
23451;SDS011;11898;51.130;6.780;2022-08-01T22:40:07;4.75;;;3.30;;
23451;SDS011;11898;51.130;6.780;2022-08-01T22:45:13;4.35;;;2.65;;
23451;SDS011;11898;51.130;6.780;2022-08-01T22:47:52;5.65;;;2.77;;
23451;SDS011;11898;51.130;6.780;2022-08-01T22:50:55;3.22;;;2.92;;
23451;SDS011;11898;51.130;6.780;2022-08-01T22:53:10;3.70;;;2.95;;
23451;SDS011;11898;51.130;6.780;2022-08-01T22:55:58;3.75;;;2.67;;
23451;SDS011;11898;51.130;6.780;2022-08-01T22:58:29;5.85;;;3.30;;
23451;SDS011;11898;51.130;6.780;2022-08-01T23:00:59;5.30;;;3.83;;
23451;SDS011;11898;51.130;6.780;2022-08-01T23:03:32;4.42;;;3.27;;
23451;SDS011;11898;51.130;6.780;2022-08-01T23:06:03;4.03;;;2.75;;
23451;SDS011;11898;51.130;6.780;2022-08-01T23:08:55;7.65;;;3.25;;
23451;SDS011;11898;51.130;6.780;2022-08-01T23:11:28;5.03;;;3.20;;
23451;SDS011;11898;51.130;6.780;2022-08-01T23:13:57;7.72;;;3.37;;
23451;SDS011;11898;51.130;6.780;2022-08-01T23:16:28;4.85;;;3.20;;
23451;SDS011;11898;51.130;6.780;2022-08-01T23:18:58;4.12;;;3.08;;
23451;SDS011;11898;51.130;6.780;2022-08-01T23:21:27;4.12;;;2.87;;
23451;SDS011;11898;51.130;6.780;2022-08-01T23:23:58;4.15;;;3.00;;
23451;SDS011;11898;51.130;6.780;2022-08-01T23:26:29;7.25;;;3.33;;
23451;SDS011;11898;51.130;6.780;2022-08-01T23:28:59;4.92;;;3.00;;
23451;SDS011;11898;51.130;6.780;2022-08-01T23:31:28;3.50;;;2.62;;
23451;SDS011;11898;51.130;6.780;2022-08-01T23:34:00;5.03;;;3.33;;
23451;SDS011;11898;51.130;6.780;2022-08-01T23:36:28;4.62;;;3.60;;
23451;SDS011;11898;51.130;6.780;2022-08-01T23:38:57;4.75;;;3.10;;
23451;SDS011;11898;51.130;6.780;2022-08-01T23:41:26;5.10;;;3.35;;
23451;SDS011;11898;51.130;6.780;2022-08-01T23:43:56;4.40;;;3.42;;
23451;SDS011;11898;51.130;6.780;2022-08-01T23:46:25;5.10;;;3.50;;
23451;SDS011;11898;51.130;6.780;2022-08-01T23:48:53;3.37;;;3.05;;
23451;SDS011;11898;51.130;6.780;2022-08-01T23:51:22;6.25;;;3.62;;
23451;SDS011;11898;51.130;6.780;2022-08-01T23:53:51;4.35;;;3.08;;
23451;SDS011;11898;51.130;6.780;2022-08-01T23:56:20;5.67;;;3.47;;
23451;SDS011;11898;51.130;6.780;2022-08-01T23:58:50;5.03;;;3.30;;
